Time;durP1;ratioP1;P1;durP2;ratioP2;P2;SDS_P1;SDS_P2;PMS_P1;PMS_P2;Temp;Humidity;BMP_temperature;BMP_pressure;BME280_temperature;BME280_humidity;BME280_pressure;Samples;Min_cycle;Max_cycle;Signal;HPM_P1;HPM_P2
2021/01/27 00:00:39;;;;;;;5.90;5.30;;;1.40;99.90;;;;;;5033296;28;20195;-63
2021/01/27 00:03:05;;;;;;;8.13;5.83;;;1.40;99.90;;;;;;5025157;28;20226;-63
2021/01/27 00:05:38;;;;;;;9.73;5.70;;;1.40;99.90;;;;;;5013339;28;20290;-63
2021/01/27 00:08:05;;;;;;;4.77;4.20;;;1.50;99.90;;;;;;5019445;28;20203;-63
2021/01/27 00:10:32;;;;;;;6.20;4.40;;;1.50;99.90;;;;;;5033062;28;20183;-63
2021/01/27 00:12:58;;;;;;;6.03;4.93;;;1.50;99.90;;;;;;5027135;28;20553;-63
2021/01/27 00:15:31;;;;;;;6.17;4.53;;;1.60;99.90;;;;;;5013146;28;20583;-63
2021/01/27 00:17:57;;;;;;;6.73;4.53;;;1.60;99.90;;;;;;5017240;28;20590;-62
2021/01/27 00:20:24;;;;;;;7.73;4.50;;;1.70;99.90;;;;;;5032715;28;20170;-62
2021/01/27 00:22:50;;;;;;;5.93;4.77;;;1.70;99.90;;;;;;5028987;28;20243;-62
2021/01/27 00:25:18;;;;;;;6.00;4.60;;;1.70;99.90;;;;;;5013097;28;20645;-63
2021/01/27 00:27:44;;;;;;;5.80;4.67;;;1.80;99.90;;;;;;5014247;28;20609;-63
2021/01/27 00:30:17;;;;;;;8.10;5.07;;;1.80;99.90;;;;;;5032666;28;20175;-63
2021/01/27 00:32:43;;;;;;;4.77;4.20;;;1.80;99.90;;;;;;5045568;28;20183;-63
2021/01/27 00:35:09;;;;;;;6.73;4.77;;;1.90;99.90;;;;;;5012601;28;20231;-63
2021/01/27 00:37:35;;;;;;;5.23;4.73;;;1.90;99.90;;;;;;5012424;28;20188;-63
2021/01/27 00:40:00;;;;;;;7.77;4.40;;;1.90;99.90;;;;;;5031516;28;20226;-63
2021/01/27 00:42:26;;;;;;;6.40;5.17;;;2.00;99.90;;;;;;5032323;28;20186;-62
2021/01/27 00:44:52;;;;;;;7.00;4.93;;;2.00;99.90;;;;;;5014152;28;20198;-63
2021/01/27 00:47:17;;;;;;;8.63;4.30;;;2.00;99.90;;;;;;5012004;28;20397;-62
2021/01/27 00:49:43;;;;;;;5.87;4.67;;;2.10;99.90;;;;;;5028507;28;20183;-62
2021/01/27 00:52:08;;;;;;;6.60;4.97;;;2.10;99.90;;;;;;5032014;28;20183;-62
2021/01/27 00:54:34;;;;;;;6.07;4.57;;;2.20;99.90;;;;;;5017431;28;20196;-63
2021/01/27 00:57:00;;;;;;;7.17;5.03;;;2.20;99.90;;;;;;5011838;28;20695;-62
2021/01/27 00:59:25;;;;;;;5.70;4.70;;;2.20;99.90;;;;;;5024677;28;20190;-62
2021/01/27 01:01:51;;;;;;;5.03;4.53;;;2.20;99.90;;;;;;5032030;28;20302;-61
2021/01/27 01:04:16;;;;;;;10.13;4.73;;;2.30;99.90;;;;;;5020883;28;20661;-62
2021/01/27 01:06:42;;;;;;;8.47;5.30;;;2.30;99.90;;;;;;5011946;28;20215;-62
2021/01/27 01:09:08;;;;;;;6.70;5.40;;;2.30;99.90;;;;;;5020333;28;20241;-62
2021/01/27 01:11:33;;;;;;;6.60;5.27;;;2.30;99.90;;;;;;5031868;28;20172;-62
2021/01/27 01:13:59;;;;;;;5.97;5.10;;;2.30;99.90;;;;;;5024206;28;20191;-62
2021/01/27 01:16:24;;;;;;;5.50;4.83;;;2.30;99.90;;;;;;5012002;28;20208;-61
2021/01/27 01:18:50;;;;;;;6.67;4.87;;;2.30;99.90;;;;;;5028801;28;20214;-62
2021/01/27 01:21:15;;;;;;;6.30;4.97;;;2.30;99.90;;;;;;5031619;28;20182;-62
2021/01/27 01:23:42;;;;;;;6.40;5.30;;;2.40;99.90;;;;;;5014482;28;20552;-62
2021/01/27 01:26:09;;;;;;;8.97;5.83;;;2.40;99.90;;;;;;5011941;28;20202;-62
2021/01/27 01:28:35;;;;;;;5.87;5.27;;;2.40;99.90;;;;;;5023748;28;20627;-62
2021/01/27 01:31:00;;;;;;;6.27;4.93;;;2.40;99.90;;;;;;5031628;28;20211;-62
2021/01/27 01:33:29;;;;;;;6.20;5.03;;;2.50;99.90;;;;;;5017348;28;20220;-62
2021/01/27 01:35:54;;;;;;;8.63;5.53;;;2.50;99.90;;;;;;5012116;28;20215;-62
2021/01/27 01:38:21;;;;;;;6.37;5.23;;;2.40;99.90;;;;;;5023784;28;20203;-62
2021/01/27 01:40:59;;;;;;;8.00;5.33;;;2.50;99.90;;;;;;5031709;28;20222;-63
2021/01/27 01:43:28;;;;;;;5.57;5.00;;;2.50;99.90;;;;;;5018688;28;20180;-62
2021/01/27 01:45:57;;;;;;;6.93;5.50;;;2.50;99.90;;;;;;5023309;28;20197;-62
2021/01/27 01:48:47;;;;;;;7.13;5.73;;;2.50;99.90;;;;;;5030963;28;20222;-62
2021/01/27 01:51:37;;;;;;;7.20;5.20;;;2.50;99.90;;;;;;5017462;28;20650;-63
2021/01/27 01:54:12;;;;;;;7.87;5.37;;;2.50;99.90;;;;;;5011994;28;20178;-63
2021/01/27 01:56:40;;;;;;;9.50;5.60;;;2.60;99.90;;;;;;5028072;28;20179;-62
2021/01/27 01:59:09;;;;;;;6.90;5.30;;;2.60;99.90;;;;;;5016588;28;20601;-62
2021/01/27 02:01:35;;;;;;;6.00;4.03;;;2.60;99.90;;;;;;5012537;28;20175;-62
2021/01/27 02:04:02;;;;;;;3.53;3.20;;;2.60;99.90;;;;;;5025312;28;20269;-63
2021/01/27 02:06:28;;;;;;;3.13;2.43;;;2.80;99.90;;;;;;5031335;28;20195;-62
2021/01/27 02:08:56;;;;;;;3.60;2.70;;;3.00;99.90;;;;;;5018621;28;20208;-62
2021/01/27 02:11:29;;;;;;;4.47;2.63;;;3.10;99.90;;;;;;5011570;28;20203;-62
2021/01/27 02:14:33;;;;;;;2.43;2.20;;;3.10;99.90;;;;;;5022945;28;20184;-62
2021/01/27 02:17:10;;;;;;;3.27;2.80;;;3.10;99.90;;;;;;4988969;28;20192;-63
2021/01/27 02:19:57;;;;;;;3.77;2.53;;;3.20;99.90;;;;;;4973155;28;20177;-62
2021/01/27 02:22:44;;;;;;;3.37;3.07;;;3.20;99.90;;;;;;4988632;28;20192;-62
2021/01/27 02:25:31;;;;;;;3.67;2.80;;;3.20;99.90;;;;;;4995498;28;20187;-63
2021/01/27 02:28:08;;;;;;;2.93;2.70;;;3.10;99.90;;;;;;4999332;28;20231;-62
2021/01/27 02:31:00;;;;;;;3.43;2.40;;;3.00;99.90;;;;;;5034948;28;20179;-62
2021/01/27 02:34:03;;;;;;;4.77;2.00;;;3.00;99.90;;;;;;5033135;28;20211;-62
2021/01/27 02:36:36;;;;;;;2.70;2.50;;;2.80;99.90;;;;;;5034649;28;20616;-62
2021/01/27 02:39:24;;;;;;;3.60;2.20;;;2.80;99.90;;;;;;5024149;28;20210;-62
2021/01/27 02:42:05;;;;;;;4.10;2.70;;;2.70;99.90;;;;;;5014890;28;20172;-62
2021/01/27 02:44:40;;;;;;;3.17;2.20;;;2.70;99.90;;;;;;5027946;28;20229;-62
2021/01/27 02:47:17;;;;;;;2.10;1.93;;;2.70;99.90;;;;;;5033235;28;20171;-62
2021/01/27 02:49:57;;;;;;;2.50;2.27;;;2.70;99.90;;;;;;5020110;28;20253;-63
2021/01/27 02:52:41;;;;;;;2.57;2.27;;;2.70;99.90;;;;;;5014823;28;20211;-62
2021/01/27 02:55:09;;;;;;;3.40;2.43;;;2.70;99.90;;;;;;5030430;28;20707;-63
2021/01/27 02:57:46;;;;;;;2.30;2.10;;;2.70;99.90;;;;;;5034069;28;20201;-62
2021/01/27 03:00:21;;;;;;;4.43;2.40;;;2.60;99.90;;;;;;5017098;28;20184;-62
2021/01/27 03:03:00;;;;;;;2.60;2.40;;;2.60;99.90;;;;;;5014463;28;20318;-62
2021/01/27 03:05:36;;;;;;;2.70;2.50;;;2.60;99.90;;;;;;5032641;28;20187;-62
2021/01/27 03:08:23;;;;;;;2.27;2.07;;;2.60;99.90;;;;;;5033841;28;20206;-62
2021/01/27 03:11:13;;;;;;;2.60;2.20;;;2.60;99.90;;;;;;4994770;28;20262;-62
2021/01/27 03:13:39;;;;;;;2.50;2.30;;;2.50;99.90;;;;;;5000541;28;20553;-62
2021/01/27 03:16:11;;;;;;;3.57;2.80;;;2.50;99.90;;;;;;5034225;28;20702;-62
2021/01/27 03:18:42;;;;;;;2.73;2.53;;;2.40;99.90;;;;;;5031965;28;20570;-62
2021/01/27 03:21:14;;;;;;;4.97;2.77;;;2.40;99.90;;;;;;5014822;28;20176;-65
2021/01/27 03:23:50;;;;;;;3.27;2.97;;;2.40;99.90;;;;;;5017228;28;20172;-65
2021/01/27 03:26:45;;;;;;;4.20;3.07;;;2.40;99.90;;;;;;5035064;28;20623;-66
2021/01/27 03:29:23;;;;;;;4.17;2.93;;;2.30;99.90;;;;;;5019719;28;20219;-66
2021/01/27 03:31:53;;;;;;;5.13;3.40;;;2.30;99.90;;;;;;5015122;28;20183;-68
2021/01/27 03:34:29;;;;;;;3.60;3.30;;;2.20;99.90;;;;;;5021075;28;20570;-69
2021/01/27 03:37:04;;;;;;;4.97;4.00;;;2.20;99.90;;;;;;5034580;28;20512;-65
2021/01/27 03:39:34;;;;;;;5.50;3.47;;;2.20;99.90;;;;;;5027281;28;20585;-68
2021/01/27 03:42:05;;;;;;;7.57;3.97;;;2.20;99.90;;;;;;5014795;28;20264;-67
2021/01/27 03:44:42;;;;;;;5.40;3.77;;;2.20;99.90;;;;;;5021433;28;20179;-66
2021/01/27 03:47:22;;;;;;;7.63;4.30;;;2.10;99.90;;;;;;5032615;28;20172;-64
2021/01/27 03:50:18;;;;;;;6.50;4.23;;;2.10;99.90;;;;;;5026021;28;20638;-66
2021/01/27 03:52:56;;;;;;;6.97;3.90;;;2.10;99.90;;;;;;5014945;28;20176;-70
2021/01/27 03:55:55;;;;;;;4.57;4.17;;;2.00;99.90;;;;;;5026216;28;20199;-66
2021/01/27 03:58:25;;;;;;;6.20;3.53;;;2.00;99.90;;;;;;5032798;28;20567;-66
2021/01/27 04:00:51;;;;;;;5.03;4.20;;;1.90;99.90;;;;;;5034211;28;20171;-69
2021/01/27 04:03:20;;;;;;;5.40;4.20;;;1.90;99.90;;;;;;5024214;28;20273;-67
2021/01/27 04:05:46;;;;;;;4.90;4.17;;;1.80;99.90;;;;;;5014658;28;20181;-67
2021/01/27 04:08:12;;;;;;;4.83;4.13;;;1.80;99.90;;;;;;5021746;28;20226;-68
2021/01/27 04:10:38;;;;;;;7.87;4.97;;;1.80;99.90;;;;;;5034069;28;20214;-67
2021/01/27 04:13:04;;;;;;;6.40;4.60;;;1.80;99.90;;;;;;5032441;28;20587;-67
2021/01/27 04:15:30;;;;;;;6.63;4.90;;;1.80;99.90;;;;;;5034080;28;20668;-66
2021/01/27 04:17:55;;;;;;;5.80;4.33;;;1.80;99.90;;;;;;5028260;28;20215;-67
2021/01/27 04:20:22;;;;;;;9.27;4.90;;;1.80;99.90;;;;;;5012754;28;20662;-68
2021/01/27 04:22:48;;;;;;;10.20;5.10;;;1.80;99.90;;;;;;5018006;28;20552;-68
2021/01/27 04:25:14;;;;;;;5.80;4.87;;;1.80;99.90;;;;;;5033869;28;20179;-66
2021/01/27 04:27:40;;;;;;;5.43;4.60;;;1.80;99.90;;;;;;5031145;28;20207;-66
2021/01/27 04:30:09;;;;;;;7.33;4.37;;;1.90;99.90;;;;;;5014219;28;20183;-68
2021/01/27 04:32:35;;;;;;;8.17;4.83;;;1.90;99.90;;;;;;5014814;28;20196;-68
2021/01/27 04:35:01;;;;;;;5.10;4.40;;;1.90;99.90;;;;;;5033670;28;20203;-66
2021/01/27 04:37:26;;;;;;;7.43;4.80;;;1.90;99.90;;;;;;5033183;28;20249;-67
2021/01/27 04:39:52;;;;;;;7.97;5.13;;;2.00;99.90;;;;;;5014789;28;20210;-67
2021/01/27 04:42:25;;;;;;;5.83;4.67;;;2.00;99.90;;;;;;5012381;28;20268;-62
2021/01/27 04:44:54;;;;;;;5.40;4.37;;;2.10;99.90;;;;;;5030786;28;20191;-62
2021/01/27 04:47:32;;;;;;;9.50;5.47;;;2.10;99.90;;;;;;5031939;28;20211;-62
2021/01/27 04:50:05;;;;;;;5.97;4.87;;;2.10;99.90;;;;;;5013242;28;20245;-61
2021/01/27 04:52:54;;;;;;;6.07;4.37;;;2.10;99.90;;;;;;5011235;28;20246;-62
2021/01/27 04:55:41;;;;;;;6.57;4.60;;;2.10;99.90;;;;;;4991949;28;20213;-62
2021/01/27 04:58:44;;;;;;;7.80;4.47;;;2.10;99.90;;;;;;4998688;28;20677;-62
2021/01/27 05:01:47;;;;;;;4.50;4.10;;;2.10;99.90;;;;;;5031777;28;20207;-64
2021/01/27 05:04:18;;;;;;;4.97;3.80;;;2.00;99.90;;;;;;5020011;28;20187;-62
2021/01/27 05:06:48;;;;;;;4.87;3.80;;;2.00;99.90;;;;;;5012008;28;20176;-62
2021/01/27 05:09:34;;;;;;;5.13;3.80;;;2.00;99.90;;;;;;5023029;28;20571;-62
2021/01/27 05:12:04;;;;;;;8.13;3.97;;;2.00;99.90;;;;;;5031864;28;20175;-62
2021/01/27 05:14:30;;;;;;;9.87;3.83;;;2.00;99.90;;;;;;5018361;28;20188;-62
2021/01/27 05:17:01;;;;;;;4.30;3.77;;;2.00;99.90;;;;;;5011554;28;20176;-62
2021/01/27 05:19:27;;;;;;;4.50;3.67;;;2.00;99.90;;;;;;5023906;28;20175;-62
2021/01/27 05:21:56;;;;;;;3.93;3.37;;;1.90;99.90;;;;;;5031903;28;20632;-64
2021/01/27 05:24:22;;;;;;;4.20;3.57;;;1.90;99.90;;;;;;5020396;28;20232;-62
2021/01/27 05:26:56;;;;;;;6.50;4.10;;;1.90;99.90;;;;;;5011718;28;20258;-62
2021/01/27 05:29:37;;;;;;;5.07;3.33;;;1.90;99.90;;;;;;5018089;28;20265;-64
2021/01/27 05:32:18;;;;;;;4.43;3.67;;;1.90;99.90;;;;;;5031465;28;20547;-64
2021/01/27 05:34:50;;;;;;;4.23;3.83;;;1.90;99.90;;;;;;5018406;28;20200;-63
2021/01/27 05:37:33;;;;;;;4.93;3.50;;;1.80;99.90;;;;;;5011301;28;20184;-62
2021/01/27 05:40:21;;;;;;;6.67;4.47;;;1.80;99.90;;;;;;5025914;28;20210;-62
2021/01/27 05:42:47;;;;;;;5.03;4.30;;;1.80;99.90;;;;;;5031564;28;20275;-62
2021/01/27 05:45:43;;;;;;;3.90;3.43;;;1.80;99.90;;;;;;5015356;28;20199;-62
2021/01/27 05:48:21;;;;;;;9.50;4.27;;;1.80;99.90;;;;;;5034518;23;20281;-65
2021/01/27 05:50:48;;;;;;;5.23;3.80;;;1.70;99.90;;;;;;5011852;28;20513;-65
2021/01/27 05:53:18;;;;;;;4.77;4.33;;;1.70;99.90;;;;;;5011755;28;20517;-65
2021/01/27 05:56:08;;;;;;;8.87;4.50;;;1.70;99.90;;;;;;5014828;28;20204;-65
2021/01/27 05:58:41;;;;;;;4.67;4.17;;;1.70;99.90;;;;;;4988686;28;20197;-65
2021/01/27 06:01:15;;;;;;;5.50;4.20;;;1.60;99.90;;;;;;4976755;28;20192;-65
2021/01/27 06:03:52;;;;;;;4.93;4.47;;;1.60;99.90;;;;;;4992254;28;20619;-65
2021/01/27 06:06:18;;;;;;;5.60;4.13;;;1.60;99.90;;;;;;4995898;28;20177;-64
2021/01/27 06:08:56;;;;;;;5.10;4.10;;;1.60;99.90;;;;;;4979627;28;20208;-65
2021/01/27 06:11:24;;;;;;;9.03;4.97;;;1.50;99.90;;;;;;4976444;28;20603;-64
2021/01/27 06:13:51;;;;;;;8.83;4.80;;;1.50;99.90;;;;;;4992236;28;20201;-65
2021/01/27 06:16:20;;;;;;;4.10;3.70;;;1.50;99.90;;;;;;4995681;28;20584;-64
2021/01/27 06:18:45;;;;;;;4.43;3.60;;;1.40;99.90;;;;;;4993760;28;20243;-65
2021/01/27 06:21:49;;;;;;;4.77;4.27;;;1.40;99.90;;;;;;4995812;28;20200;-64
2021/01/27 06:24:35;;;;;;;7.07;4.53;;;1.40;99.90;;;;;;4982920;28;20662;-65
2021/01/27 06:27:22;;;;;;;5.27;4.53;;;1.40;99.90;;;;;;4994934;28;20689;-65
2021/01/27 06:29:57;;;;;;;6.10;5.50;;;1.40;99.90;;;;;;4995636;28;20535;-65
2021/01/27 06:32:44;;;;;;;6.37;4.67;;;1.40;99.90;;;;;;4991872;28;20801;-64
2021/01/27 06:35:46;;;;;;;4.80;4.27;;;1.40;99.90;;;;;;4976116;28;20690;-65
2021/01/27 06:38:35;;;;;;;8.10;5.53;;;1.40;99.90;;;;;;4983604;28;20203;-65
2021/01/27 06:41:28;;;;;;;6.27;5.13;;;1.40;99.90;;;;;;4995325;28;20638;-65
2021/01/27 06:44:21;;;;;;;7.43;5.40;;;1.40;99.90;;;;;;4981838;28;20178;-65
2021/01/27 06:47:04;;;;;;;6.40;5.03;;;1.30;99.90;;;;;;4975615;28;20173;-65
2021/01/27 06:49:42;;;;;;;9.53;6.10;;;1.30;99.90;;;;;;4991199;28;20223;-66
2021/01/27 06:52:20;;;;;;;8.77;6.83;;;1.30;99.90;;;;;;4994916;28;20227;-66
2021/01/27 06:55:00;;;;;;;13.40;7.73;;;1.30;99.90;;;;;;4975831;28;20209;-66
2021/01/27 06:58:02;;;;;;;6.87;6.17;;;1.20;99.90;;;;;;4975054;28;20177;-65
2021/01/27 07:01:12;;;;;;;9.23;5.27;;;1.20;99.90;;;;;;4975587;28;20173;-65
2021/01/27 07:04:06;;;;;;;11.13;6.90;;;1.20;99.90;;;;;;4981889;28;20184;-65
2021/01/27 07:06:56;;;;;;;7.60;6.10;;;1.10;99.90;;;;;;4994494;28;20176;-65
2021/01/27 07:09:35;;;;;;;8.17;6.33;;;1.10;99.90;;;;;;4980296;28;20197;-66
2021/01/27 07:12:26;;;;;;;7.50;6.50;;;1.10;99.90;;;;;;4975349;28;20635;-66
2021/01/27 07:15:13;;;;;;;8.97;5.97;;;1.10;99.90;;;;;;4992276;28;20700;-66
2021/01/27 07:18:00;;;;;;;7.63;5.23;;;1.00;99.90;;;;;;4994126;28;20243;-65
2021/01/27 07:20:31;;;;;;;7.73;6.20;;;1.00;99.90;;;;;;4975127;28;20265;-67
2021/01/27 07:23:10;;;;;;;7.30;5.93;;;1.10;99.90;;;;;;4975415;28;20172;-64
2021/01/27 07:26:09;;;;;;;6.63;5.97;;;1.10;99.90;;;;;;4975096;28;20181;-67
2021/01/27 07:29:26;;;;;;;7.83;6.33;;;1.00;99.90;;;;;;4979400;28;20596;-66
2021/01/27 07:31:53;;;;;;;6.30;5.40;;;1.00;99.90;;;;;;4937283;29;20202;-66
2021/01/27 07:34:39;;;;;;;7.07;5.87;;;1.10;99.90;;;;;;4975741;28;20216;-65
2021/01/27 07:37:25;;;;;;;8.30;6.17;;;1.10;99.90;;;;;;4974241;28;20248;-65
2021/01/27 07:39:54;;;;;;;7.70;5.90;;;1.10;99.90;;;;;;4988394;28;20666;-64
2021/01/27 07:42:41;;;;;;;6.87;6.17;;;1.10;99.90;;;;;;4987510;28;20186;-65
2021/01/27 07:45:20;;;;;;;6.27;5.63;;;1.10;99.90;;;;;;4974377;28;20533;-65
2021/01/27 07:47:55;;;;;;;9.37;5.93;;;1.10;99.90;;;;;;4983140;28;20201;-65
2021/01/27 07:50:22;;;;;;;10.33;5.53;;;1.10;99.90;;;;;;4993995;28;20176;-65
2021/01/27 07:52:51;;;;;;;11.83;6.53;;;1.10;99.90;;;;;;4985136;28;20173;-65
2021/01/27 07:55:22;;;;;;;8.37;6.43;;;1.10;99.90;;;;;;4974167;28;20205;-65
2021/01/27 07:57:55;;;;;;;10.57;7.23;;;1.10;99.90;;;;;;4989907;28;20199;-65
2021/01/27 08:00:50;;;;;;;8.70;6.73;;;1.10;99.90;;;;;;4993643;28;20182;-65
2021/01/27 08:03:40;;;;;;;8.77;7.23;;;1.10;99.90;;;;;;4953319;28;20200;-65
2021/01/27 08:06:14;;;;;;;10.37;7.47;;;1.10;99.90;;;;;;4976452;28;20200;-65
2021/01/27 08:08:53;;;;;;;7.23;6.13;;;1.10;99.90;;;;;;4993291;28;20267;-65
2021/01/27 08:11:37;;;;;;;7.10;6.40;;;1.20;99.90;;;;;;4989918;28;20604;-65
2021/01/27 08:14:04;;;;;;;11.40;8.47;;;1.20;99.90;;;;;;4973992;28;20181;-65
2021/01/27 08:16:35;;;;;;;11.47;7.10;;;1.20;99.90;;;;;;4978239;28;20288;-65
2021/01/27 08:19:12;;;;;;;10.97;7.10;;;1.20;99.90;;;;;;4992180;28;20189;-65
2021/01/27 08:21:47;;;;;;;12.67;8.63;;;1.30;99.90;;;;;;4988488;28;20549;-65
2021/01/27 08:24:37;;;;;;;12.13;7.70;;;1.30;99.90;;;;;;4973843;28;20199;-65
2021/01/27 08:27:14;;;;;;;10.20;6.87;;;1.40;99.90;;;;;;4974492;28;20191;-65
2021/01/27 08:30:02;;;;;;;9.30;7.30;;;1.40;99.90;;;;;;4974096;28;20261;-63
2021/01/27 08:32:30;;;;;;;8.57;7.23;;;1.40;99.90;;;;;;4977205;28;20181;-63
2021/01/27 08:35:04;;;;;;;10.40;8.00;;;1.40;99.90;;;;;;4973678;28;20201;-65
2021/01/27 08:37:32;;;;;;;8.97;7.07;;;1.40;99.90;;;;;;4982801;28;20281;-64
2021/01/27 08:40:25;;;;;;;8.93;7.70;;;1.40;99.90;;;;;;4993259;28;20176;-65
2021/01/27 08:42:52;;;;;;;10.27;8.17;;;1.50;99.90;;;;;;4991407;28;20183;-65
2021/01/27 08:45:21;;;;;;;10.13;6.43;;;1.50;99.90;;;;;;4992791;28;20234;-65
2021/01/27 08:47:48;;;;;;;14.07;8.00;;;1.50;99.90;;;;;;4980855;28;20245;-65
2021/01/27 08:50:44;;;;;;;9.90;7.17;;;1.50;99.90;;;;;;4973666;28;20181;-65
2021/01/27 08:53:14;;;;;;;13.97;7.97;;;1.50;99.90;;;;;;4985765;28;20188;-64
2021/01/27 08:55:46;;;;;;;10.60;8.10;;;1.60;99.90;;;;;;4992854;28;20197;-65
2021/01/27 08:58:49;;;;;;;11.87;7.80;;;1.60;99.90;;;;;;4988505;28;20247;-65
2021/01/27 09:01:23;;;;;;;9.73;7.00;;;1.60;99.90;;;;;;4975806;28;20216;-65
2021/01/27 09:03:51;;;;;;;9.67;7.57;;;1.60;99.90;;;;;;4987182;28;20184;-65
2021/01/27 09:06:44;;;;;;;11.47;7.93;;;1.70;99.90;;;;;;4981127;28;20184;-64
2021/01/27 09:09:23;;;;;;;9.57;7.30;;;1.70;99.90;;;;;;4992155;28;20258;-65
2021/01/27 09:12:04;;;;;;;12.63;7.60;;;1.80;99.90;;;;;;4980386;28;20255;-65
2021/01/27 09:14:30;;;;;;;11.53;6.80;;;1.80;99.90;;;;;;4973113;28;20592;-65
2021/01/27 09:16:57;;;;;;;9.33;6.80;;;1.90;99.90;;;;;;4984969;28;20203;-64
2021/01/27 09:19:25;;;;;;;9.23;7.10;;;1.90;99.90;;;;;;4992269;28;20189;-65
2021/01/27 09:22:04;;;;;;;11.13;6.67;;;1.90;99.90;;;;;;4981529;28;20173;-65
2021/01/27 09:24:56;;;;;;;8.77;6.23;;;1.90;99.90;;;;;;4971826;28;20173;-65
2021/01/27 09:27:31;;;;;;;8.70;6.63;;;2.00;99.90;;;;;;4971209;28;20190;-66
2021/01/27 09:30:04;;;;;;;11.03;6.93;;;2.10;99.90;;;;;;4974697;28;20192;-65
2021/01/27 09:32:31;;;;;;;10.03;5.93;;;2.10;99.90;;;;;;4987179;28;20184;-65
2021/01/27 09:35:20;;;;;;;9.23;5.97;;;2.20;99.90;;;;;;4974308;28;20662;-65
2021/01/27 09:38:02;;;;;;;8.50;6.30;;;2.10;99.90;;;;;;4983970;28;20193;-65
2021/01/27 09:40:40;;;;;;;8.00;5.23;;;2.20;99.90;;;;;;4981359;28;20181;-65
2021/01/27 09:43:12;;;;;;;7.57;5.70;;;2.20;99.90;;;;;;4972659;28;20174;-65
2021/01/27 09:45:41;;;;;;;7.47;5.60;;;2.20;99.90;;;;;;4991221;28;20629;-65
2021/01/27 09:48:08;;;;;;;6.77;6.03;;;2.30;99.90;;;;;;4991448;28;20223;-65
2021/01/27 09:50:38;;;;;;;7.73;5.27;;;2.30;99.90;;;;;;4992302;28;20196;-65
2021/01/27 09:53:04;;;;;;;6.43;5.77;;;2.40;99.90;;;;;;4991163;28;20180;-65
2021/01/27 09:55:30;;;;;;;5.30;4.63;;;2.40;99.90;;;;;;4989699;28;20259;-64
2021/01/27 09:57:57;;;;;;;6.93;5.07;;;2.40;99.90;;;;;;4991636;28;20188;-65
2021/01/27 10:00:29;;;;;;;7.70;4.87;;;2.40;99.90;;;;;;4992050;28;20175;-66
2021/01/27 10:02:54;;;;;;;8.83;4.87;;;2.50;99.90;;;;;;4992141;28;20543;-65
2021/01/27 10:05:36;;;;;;;4.87;4.30;;;2.60;99.90;;;;;;4991772;28;20176;-65
2021/01/27 10:08:13;;;;;;;5.27;4.70;;;2.60;99.90;;;;;;4991545;28;20542;-65
2021/01/27 10:10:38;;;;;;;8.10;4.80;;;2.70;99.90;;;;;;4991966;28;20206;-66
2021/01/27 10:13:04;;;;;;;7.13;4.57;;;2.70;99.90;;;;;;4991891;28;20583;-66
2021/01/27 10:15:34;;;;;;;5.73;4.00;;;2.70;99.90;;;;;;4991791;28;20211;-66
2021/01/27 10:18:07;;;;;;;5.90;5.00;;;2.70;99.90;;;;;;4991408;28;20276;-66
2021/01/27 10:20:35;;;;;;;5.40;4.70;;;2.70;99.90;;;;;;4992074;28;20227;-66
2021/01/27 10:23:08;;;;;;;4.73;4.03;;;2.80;99.90;;;;;;4991782;28;20179;-66
2021/01/27 10:25:47;;;;;;;6.83;4.47;;;2.80;99.90;;;;;;4991758;28;20260;-66
2021/01/27 10:28:27;;;;;;;6.40;4.50;;;2.80;99.90;;;;;;4991302;28;20219;-66
2021/01/27 10:30:59;;;;;;;10.30;6.30;;;2.90;99.90;;;;;;4992020;28;20208;-66
2021/01/27 10:33:48;;;;;;;8.70;4.93;;;2.90;99.90;;;;;;4991646;28;20188;-66
2021/01/27 10:36:46;;;;;;;10.77;7.57;;;2.90;99.90;;;;;;4991645;28;20204;-66
2021/01/27 10:39:20;;;;;;;6.80;4.40;;;3.00;99.90;;;;;;4983168;28;20205;-66
2021/01/27 10:41:52;;;;;;;8.30;5.27;;;3.00;99.90;;;;;;4992437;28;20646;-66
2021/01/27 10:44:31;;;;;;;9.07;5.57;;;3.00;99.90;;;;;;4995114;28;20169;-66
2021/01/27 10:47:24;;;;;;;5.23;4.73;;;3.10;99.90;;;;;;4995237;28;20527;-66
2021/01/27 10:49:49;;;;;;;5.13;4.27;;;3.20;99.90;;;;;;4995468;28;20177;-65
2021/01/27 10:52:27;;;;;;;8.37;4.10;;;3.30;99.90;;;;;;4993937;28;20549;-66
2021/01/27 10:54:56;;;;;;;9.13;5.87;;;3.40;99.90;;;;;;4994103;28;20197;-66
2021/01/27 10:57:21;;;;;;;8.27;7.03;;;3.40;99.90;;;;;;4994296;28;20635;-66
2021/01/27 10:59:47;;;;;;;7.27;6.33;;;3.40;99.90;;;;;;4995020;28;20169;-66
2021/01/27 11:02:13;;;;;;;5.93;5.43;;;3.40;99.90;;;;;;4994715;28;20173;-66
2021/01/27 11:04:38;;;;;;;6.37;5.43;;;3.40;99.90;;;;;;4994879;28;20169;-66
2021/01/27 11:07:04;;;;;;;6.07;4.93;;;3.40;99.90;;;;;;4994373;28;20548;-66
2021/01/27 11:09:30;;;;;;;5.60;5.00;;;3.40;99.90;;;;;;4994566;28;20561;-66
2021/01/27 11:11:57;;;;;;;5.07;4.57;;;3.40;99.90;;;;;;4994897;28;20200;-65
2021/01/27 11:14:23;;;;;;;10.90;5.47;;;3.40;99.90;;;;;;4994615;28;20200;-65
2021/01/27 11:16:48;;;;;;;10.83;5.27;;;3.50;99.90;;;;;;4994398;28;20212;-65
2021/01/27 11:19:14;;;;;;;12.47;6.90;;;3.50;99.90;;;;;;4994344;28;20199;-65
2021/01/27 11:21:40;;;;;;;7.40;5.30;;;3.50;99.90;;;;;;4994613;28;20173;-65
2021/01/27 11:24:06;;;;;;;7.00;5.83;;;3.50;99.90;;;;;;4994370;28;20172;-65
2021/01/27 11:26:33;;;;;;;6.57;4.80;;;3.50;99.90;;;;;;4994619;28;20515;-65
2021/01/27 11:28:58;;;;;;;6.07;4.67;;;3.60;99.90;;;;;;4994104;28;20219;-65
2021/01/27 11:31:28;;;;;;;6.77;5.40;;;3.60;99.90;;;;;;4994147;28;20177;-65
2021/01/27 11:33:54;;;;;;;5.80;5.20;;;3.60;99.90;;;;;;4993183;28;20271;-65
2021/01/27 11:36:23;;;;;;;5.80;5.07;;;3.60;99.90;;;;;;4994196;28;20205;-66
2021/01/27 11:38:50;;;;;;;6.57;5.67;;;3.70;99.90;;;;;;4993864;28;20200;-66
2021/01/27 11:41:17;;;;;;;8.23;6.40;;;3.70;99.90;;;;;;4993889;28;20544;-65
2021/01/27 11:43:44;;;;;;;7.13;5.90;;;3.70;99.90;;;;;;4994292;28;20462;-66
2021/01/27 11:46:15;;;;;;;8.57;6.17;;;3.80;99.90;;;;;;4993960;28;20682;-66
2021/01/27 11:51:10;;;;;;;11.17;9.87;;;3.80;99.90;;;;;;4992137;28;20681;-64
2021/01/27 11:53:39;;;;;;;7.63;5.80;;;3.90;99.90;;;;;;4992763;28;20177;-64
2021/01/27 11:56:06;;;;;;;9.03;7.23;;;4.00;99.90;;;;;;4986215;28;20240;-64
2021/01/27 11:58:31;;;;;;;5.70;5.10;;;4.00;99.90;;;;;;4992237;28;20251;-65
2021/01/27 12:00:58;;;;;;;6.97;5.70;;;4.10;99.90;;;;;;4994842;28;20646;-65
2021/01/27 12:03:24;;;;;;;7.13;5.80;;;4.10;99.90;;;;;;4993358;28;20257;-64
2021/01/27 12:05:50;;;;;;;5.90;5.20;;;4.00;99.90;;;;;;5007533;28;20211;-64
2021/01/27 12:08:16;;;;;;;6.77;5.40;;;4.00;99.90;;;;;;5011657;28;20984;-64
2021/01/27 12:10:42;;;;;;;5.40;4.63;;;4.00;99.90;;;;;;5000926;28;20188;-65
2021/01/27 12:13:08;;;;;;;5.70;5.20;;;4.00;99.90;;;;;;4992543;28;20304;-63
2021/01/27 12:15:34;;;;;;;6.77;6.07;;;4.00;99.90;;;;;;5004116;28;20204;-64
2021/01/27 12:17:59;;;;;;;8.27;5.27;;;3.90;99.90;;;;;;5012711;28;20227;-64
2021/01/27 12:20:25;;;;;;;4.83;3.77;;;3.90;99.90;;;;;;5003958;28;20208;-64
2021/01/27 12:22:51;;;;;;;8.77;5.73;;;3.90;99.90;;;;;;4993507;28;20514;-64
2021/01/27 12:25:17;;;;;;;9.00;5.80;;;3.90;99.90;;;;;;5000137;28;20176;-64
2021/01/27 12:27:43;;;;;;;7.37;6.10;;;4.00;99.90;;;;;;5012503;28;20755;-64
2021/01/27 12:30:10;;;;;;;8.37;5.90;;;4.10;99.90;;;;;;5006990;28;20180;-65
2021/01/27 12:32:36;;;;;;;7.03;5.20;;;4.10;99.90;;;;;;4993369;28;20180;-65
2021/01/27 12:35:03;;;;;;;7.00;4.50;;;4.10;99.90;;;;;;4997033;28;20200;-64
2021/01/27 12:37:29;;;;;;;6.23;5.60;;;4.10;99.90;;;;;;5012443;28;20230;-64
2021/01/27 12:39:55;;;;;;;6.60;5.00;;;4.10;99.90;;;;;;5009812;28;20607;-64
2021/01/27 12:42:20;;;;;;;5.97;4.80;;;4.20;99.90;;;;;;4992983;28;20188;-64
2021/01/27 12:44:46;;;;;;;7.57;5.27;;;4.30;99.90;;;;;;4993899;28;20256;-65
2021/01/27 12:47:13;;;;;;;10.77;5.97;;;4.30;99.90;;;;;;5012273;28;20172;-64
2021/01/27 12:49:40;;;;;;;6.10;5.13;;;4.40;99.90;;;;;;5012502;28;20208;-64
2021/01/27 12:52:06;;;;;;;10.83;6.13;;;4.40;99.90;;;;;;4992235;28;20260;-64
2021/01/27 12:54:32;;;;;;;7.17;6.27;;;4.40;99.90;;;;;;4992977;28;20181;-63
2021/01/27 12:56:57;;;;;;;6.00;5.30;;;4.50;99.90;;;;;;5009955;28;20207;-63
2021/01/27 12:59:23;;;;;;;7.20;5.60;;;4.50;99.90;;;;;;5012200;28;20191;-64
2021/01/27 13:01:49;;;;;;;8.20;5.53;;;4.70;99.90;;;;;;4999812;28;20192;-64
2021/01/27 13:04:15;;;;;;;6.63;5.50;;;4.80;99.90;;;;;;4999208;28;20172;-64
2021/01/27 13:06:41;;;;;;;6.33;4.90;;;4.90;99.90;;;;;;5012149;28;20638;-64
2021/01/27 13:09:06;;;;;;;4.77;4.07;;;4.90;99.90;;;;;;5004635;28;20205;-64
2021/01/27 13:11:32;;;;;;;6.33;5.50;;;4.90;99.90;;;;;;4992527;28;20173;-64
2021/01/27 13:13:57;;;;;;;5.77;5.20;;;5.10;99.90;;;;;;4996960;28;20180;-63
2021/01/27 13:16:23;;;;;;;5.90;5.30;;;5.10;99.90;;;;;;5011910;28;20628;-65
2021/01/27 13:18:49;;;;;;;5.60;5.03;;;5.40;99.90;;;;;;5007764;28;20565;-65
2021/01/27 13:21:14;;;;;;;6.80;4.73;;;5.40;99.90;;;;;;4992077;28;20219;-65
2021/01/27 13:23:41;;;;;;;5.17;4.67;;;5.40;99.90;;;;;;4994011;28;20173;-63
2021/01/27 13:26:08;;;;;;;5.63;5.03;;;5.30;99.90;;;;;;5011721;28;20180;-65
2021/01/27 13:28:33;;;;;;;5.80;5.30;;;5.10;99.90;;;;;;5009884;28;20200;-65
2021/01/27 13:30:59;;;;;;;5.00;4.50;;;5.00;99.90;;;;;;4992413;28;20176;-64